sensor_id;sensor_type;location;lat;lon;timestamp;pressure;altitude;pressure_sealevel;temperature;humidity
48624;BME280;34422;45.802;16.114;2022-08-19T00:00:39;99480.44;;;21.86;85.91
48624;BME280;34422;45.802;16.114;2022-08-19T00:03:06;99465.13;;;21.80;86.45
48624;BME280;34422;45.802;16.114;2022-08-19T00:05:33;99465.84;;;21.72;86.82
48624;BME280;34422;45.802;16.114;2022-08-19T00:08:00;99454.81;;;21.72;86.86
48624;BME280;34422;45.802;16.114;2022-08-19T00:10:27;99452.97;;;21.67;88.06
48624;BME280;34422;45.802;16.114;2022-08-19T00:12:54;99460.41;;;21.67;87.59
48624;BME280;34422;45.802;16.114;2022-08-19T00:15:21;99471.94;;;21.69;87.58
48624;BME280;34422;45.802;16.114;2022-08-19T00:17:49;99476.13;;;21.66;88.57
48624;BME280;34422;45.802;16.114;2022-08-19T00:20:19;99469.81;;;21.66;89.40
48624;BME280;34422;45.802;16.114;2022-08-19T00:22:47;99452.69;;;21.69;89.72
48624;BME280;34422;45.802;16.114;2022-08-19T00:25:16;99456.56;;;21.68;90.57
48624;BME280;34422;45.802;16.114;2022-08-19T00:27:42;99464.00;;;21.67;90.58
48624;BME280;34422;45.802;16.114;2022-08-19T00:30:10;99469.28;;;21.63;91.84
48624;BME280;34422;45.802;16.114;2022-08-19T00:32:38;99464.38;;;21.60;92.21
48624;BME280;34422;45.802;16.114;2022-08-19T00:35:05;99459.22;;;21.59;92.43
48624;BME280;34422;45.802;16.114;2022-08-19T00:37:32;99457.25;;;21.59;92.93
48624;BME280;34422;45.802;16.114;2022-08-19T00:40:01;99461.44;;;21.57;92.92
48624;BME280;34422;45.802;16.114;2022-08-19T00:42:29;99459.00;;;21.55;93.15
48624;BME280;34422;45.802;16.114;2022-08-19T00:44:56;99466.72;;;21.53;93.59
48624;BME280;34422;45.802;16.114;2022-08-19T00:47:22;99473.66;;;21.51;94.64
48624;BME280;34422;45.802;16.114;2022-08-19T00:49:53;99474.88;;;21.45;95.85
48624;BME280;34422;45.802;16.114;2022-08-19T00:52:30;99479.72;;;21.34;96.68
48624;BME280;34422;45.802;16.114;2022-08-19T00:54:59;99481.56;;;21.25;97.08
48624;BME280;34422;45.802;16.114;2022-08-19T00:57:33;99490.72;;;21.20;98.03
48624;BME280;34422;45.802;16.114;2022-08-19T01:00:07;99498.16;;;21.20;97.85
48624;BME280;34422;45.802;16.114;2022-08-19T01:02:36;99504.16;;;21.22;97.60
48624;BME280;34422;45.802;16.114;2022-08-19T01:05:08;99502.97;;;21.28;97.51
48624;BME280;34422;45.802;16.114;2022-08-19T01:07:37;99494.00;;;21.36;96.94
48624;BME280;34422;45.802;16.114;2022-08-19T01:10:08;99499.13;;;21.43;96.64
48624;BME280;34422;45.802;16.114;2022-08-19T01:12:36;99511.56;;;21.40;96.80
48624;BME280;34422;45.802;16.114;2022-08-19T01:15:06;99498.19;;;21.34;96.83
48624;BME280;34422;45.802;16.114;2022-08-19T01:17:36;99510.44;;;21.41;96.18
48624;BME280;34422;45.802;16.114;2022-08-19T01:20:06;99516.16;;;21.45;95.97
48624;BME280;34422;45.802;16.114;2022-08-19T01:22:41;99508.84;;;21.21;96.57
48624;BME280;34422;45.802;16.114;2022-08-19T01:25:09;99504.50;;;21.02;97.48
48624;BME280;34422;45.802;16.114;2022-08-19T01:27:41;99495.13;;;21.03;97.85
48624;BME280;34422;45.802;16.114;2022-08-19T01:30:13;99494.59;;;21.01;98.58
48624;BME280;34422;45.802;16.114;2022-08-19T01:32:41;99483.59;;;21.01;98.24
48624;BME280;34422;45.802;16.114;2022-08-19T01:35:09;99482.47;;;21.02;98.02
48624;BME280;34422;45.802;16.114;2022-08-19T01:37:48;99484.16;;;21.16;96.50
48624;BME280;34422;45.802;16.114;2022-08-19T01:40:16;99491.75;;;21.24;96.57
48624;BME280;34422;45.802;16.114;2022-08-19T01:42:43;99484.31;;;21.25;95.57
48624;BME280;34422;45.802;16.114;2022-08-19T01:45:10;99489.50;;;21.26;95.93
48624;BME280;34422;45.802;16.114;2022-08-19T01:47:37;99481.56;;;21.25;96.04
48624;BME280;34422;45.802;16.114;2022-08-19T01:50:07;99485.88;;;21.31;96.32
48624;BME280;34422;45.802;16.114;2022-08-19T01:52:39;99488.50;;;21.36;95.16
48624;BME280;34422;45.802;16.114;2022-08-19T01:55:08;99497.28;;;21.38;95.44
48624;BME280;34422;45.802;16.114;2022-08-19T01:57:36;99488.94;;;21.43;95.26
48624;BME280;34422;45.802;16.114;2022-08-19T02:00:07;99490.78;;;21.48;94.56
48624;BME280;34422;45.802;16.114;2022-08-19T02:02:34;99482.22;;;21.49;94.82
48624;BME280;34422;45.802;16.114;2022-08-19T02:05:01;99478.88;;;21.52;95.09
48624;BME280;34422;45.802;16.114;2022-08-19T02:07:27;99477.13;;;21.56;94.31
48624;BME280;34422;45.802;16.114;2022-08-19T02:09:55;99479.06;;;21.56;93.55
48624;BME280;34422;45.802;16.114;2022-08-19T02:12:21;99497.53;;;21.55;94.70
48624;BME280;34422;45.802;16.114;2022-08-19T02:14:48;99498.50;;;21.46;95.06
48624;BME280;34422;45.802;16.114;2022-08-19T02:17:15;99503.41;;;21.49;94.71
48624;BME280;34422;45.802;16.114;2022-08-19T02:19:42;99497.22;;;21.43;94.85
48624;BME280;34422;45.802;16.114;2022-08-19T02:22:08;99480.19;;;21.41;95.05
48624;BME280;34422;45.802;16.114;2022-08-19T02:24:35;99470.19;;;21.32;95.42
48624;BME280;34422;45.802;16.114;2022-08-19T02:27:02;99466.59;;;21.31;96.68
48624;BME280;34422;45.802;16.114;2022-08-19T02:29:29;99472.72;;;21.28;98.46
48624;BME280;34422;45.802;16.114;2022-08-19T02:31:55;99466.75;;;21.21;99.19
48624;BME280;34422;45.802;16.114;2022-08-19T02:34:23;99467.50;;;21.26;98.88
48624;BME280;34422;45.802;16.114;2022-08-19T02:36:51;99470.97;;;21.32;98.10
48624;BME280;34422;45.802;16.114;2022-08-19T02:39:18;99477.50;;;21.36;98.27
48624;BME280;34422;45.802;16.114;2022-08-19T02:41:46;99474.22;;;21.34;98.55
48624;BME280;34422;45.802;16.114;2022-08-19T02:44:12;99484.13;;;21.35;98.63
48624;BME280;34422;45.802;16.114;2022-08-19T02:46:39;99491.97;;;21.28;99.35
48624;BME280;34422;45.802;16.114;2022-08-19T02:49:07;99494.34;;;21.16;100.00
48624;BME280;34422;45.802;16.114;2022-08-19T02:51:36;99493.22;;;21.17;99.73
48624;BME280;34422;45.802;16.114;2022-08-19T02:54:05;99492.72;;;21.15;100.00
48624;BME280;34422;45.802;16.114;2022-08-19T02:56:34;99491.16;;;21.09;100.00
48624;BME280;34422;45.802;16.114;2022-08-19T02:59:03;99490.63;;;21.07;100.00
48624;BME280;34422;45.802;16.114;2022-08-19T03:01:35;99487.47;;;21.00;100.00
48624;BME280;34422;45.802;16.114;2022-08-19T03:04:04;99483.25;;;20.88;100.00
48624;BME280;34422;45.802;16.114;2022-08-19T03:06:32;99488.34;;;20.95;100.00
48624;BME280;34422;45.802;16.114;2022-08-19T03:08:58;99476.97;;;21.02;100.00
48624;BME280;34422;45.802;16.114;2022-08-19T03:11:29;99482.59;;;21.10;99.25
48624;BME280;34422;45.802;16.114;2022-08-19T03:13:57;99492.13;;;21.18;99.04
48624;BME280;34422;45.802;16.114;2022-08-19T03:16:26;99501.34;;;21.27;99.03
48624;BME280;34422;45.802;16.114;2022-08-19T03:18:56;99488.50;;;21.36;98.18
48624;BME280;34422;45.802;16.114;2022-08-19T03:21:28;99493.81;;;21.46;97.80
48624;BME280;34422;45.802;16.114;2022-08-19T03:23:58;99503.41;;;21.49;97.82
48624;BME280;34422;45.802;16.114;2022-08-19T03:26:25;99507.09;;;21.44;98.29
48624;BME280;34422;45.802;16.114;2022-08-19T03:28:52;99514.84;;;21.42;98.86
48624;BME280;34422;45.802;16.114;2022-08-19T03:31:21;99524.22;;;21.41;100.00
48624;BME280;34422;45.802;16.114;2022-08-19T03:33:50;99516.22;;;21.26;100.00
48624;BME280;34422;45.802;16.114;2022-08-19T03:36:22;99521.50;;;21.22;100.00
48624;BME280;34422;45.802;16.114;2022-08-19T03:38:51;99537.09;;;21.08;100.00
48624;BME280;34422;45.802;16.114;2022-08-19T03:41:21;99529.75;;;21.04;100.00
48624;BME280;34422;45.802;16.114;2022-08-19T03:43:47;99531.75;;;20.98;100.00
48624;BME280;34422;45.802;16.114;2022-08-19T03:46:19;99528.72;;;21.00;100.00
48624;BME280;34422;45.802;16.114;2022-08-19T03:48:51;99528.72;;;21.00;100.00
48624;BME280;34422;45.802;16.114;2022-08-19T03:51:23;99524.63;;;20.97;100.00
48624;BME280;34422;45.802;16.114;2022-08-19T03:53:53;99539.13;;;21.03;100.00
48624;BME280;34422;45.802;16.114;2022-08-19T03:56:21;99548.69;;;21.05;100.00
48624;BME280;34422;45.802;16.114;2022-08-19T03:58:48;99565.59;;;20.99;100.00
48624;BME280;34422;45.802;16.114;2022-08-19T04:01:17;99588.19;;;20.96;100.00
48624;BME280;34422;45.802;16.114;2022-08-19T04:03:44;99612.50;;;20.88;100.00
48624;BME280;34422;45.802;16.114;2022-08-19T04:06:17;99605.28;;;20.92;100.00
48624;BME280;34422;45.802;16.114;2022-08-19T04:08:45;99576.00;;;21.02;100.00
48624;BME280;34422;45.802;16.114;2022-08-19T04:11:15;99569.00;;;21.09;100.00
48624;BME280;34422;45.802;16.114;2022-08-19T04:13:42;99579.13;;;21.14;100.00
48624;BME280;34422;45.802;16.114;2022-08-19T04:16:11;99588.94;;;21.20;100.00
48624;BME280;34422;45.802;16.114;2022-08-19T04:18:39;99598.75;;;21.26;100.00
48624;BME280;34422;45.802;16.114;2022-08-19T04:21:06;99585.81;;;21.26;100.00
48624;BME280;34422;45.802;16.114;2022-08-19T04:23:34;99594.31;;;21.30;100.00
48624;BME280;34422;45.802;16.114;2022-08-19T04:26:02;99596.53;;;21.28;100.00
48624;BME280;34422;45.802;16.114;2022-08-19T04:28:29;99576.34;;;21.33;100.00
48624;BME280;34422;45.802;16.114;2022-08-19T04:30:56;99595.75;;;21.41;100.00
48624;BME280;34422;45.802;16.114;2022-08-19T04:33:25;99605.56;;;21.47;100.00
48624;BME280;34422;45.802;16.114;2022-08-19T04:35:53;99608.25;;;21.52;100.00
48624;BME280;34422;45.802;16.114;2022-08-19T04:38:25;99608.66;;;21.59;100.00
48624;BME280;34422;45.802;16.114;2022-08-19T04:40:52;99614.59;;;21.67;100.00
48624;BME280;34422;45.802;16.114;2022-08-19T04:43:38;99630.53;;;21.70;100.00
48624;BME280;34422;45.802;16.114;2022-08-19T04:46:10;99627.06;;;21.78;100.00
48624;BME280;34422;45.802;16.114;2022-08-19T04:48:39;99619.25;;;21.85;100.00
48624;BME280;34422;45.802;16.114;2022-08-19T04:51:09;99619.59;;;21.97;100.00
48624;BME280;34422;45.802;16.114;2022-08-19T04:53:38;99633.13;;;22.12;100.00
48624;BME280;34422;45.802;16.114;2022-08-19T04:56:08;99654.88;;;22.27;100.00
48624;BME280;34422;45.802;16.114;2022-08-19T04:58:36;99686.50;;;22.44;100.00
48624;BME280;34422;45.802;16.114;2022-08-19T05:01:04;99694.19;;;22.60;100.00
48624;BME280;34422;45.802;16.114;2022-08-19T05:03:31;99691.72;;;22.73;100.00
48624;BME280;34422;45.802;16.114;2022-08-19T05:06:07;99674.88;;;23.01;97.69
48624;BME280;34422;45.802;16.114;2022-08-19T05:08:36;99653.00;;;23.41;92.17
48624;BME280;34422;45.802;16.114;2022-08-19T05:11:30;99635.53;;;23.68;89.87
48624;BME280;34422;45.802;16.114;2022-08-19T05:13:56;99655.84;;;23.50;91.74
48624;BME280;34422;45.802;16.114;2022-08-19T05:16:24;99668.44;;;23.56;91.76
48624;BME280;34422;45.802;16.114;2022-08-19T05:18:52;99668.53;;;23.51;90.70
48624;BME280;34422;45.802;16.114;2022-08-19T05:21:39;99653.41;;;23.48;91.23
48624;BME280;34422;45.802;16.114;2022-08-19T05:24:26;99621.50;;;23.42;90.79
48624;BME280;34422;45.802;16.114;2022-08-19T05:26:54;99604.78;;;23.25;93.17
48624;BME280;34422;45.802;16.114;2022-08-19T05:29:25;99593.44;;;23.04;95.02
48624;BME280;34422;45.802;16.114;2022-08-19T05:31:53;99562.25;;;22.81;97.91
48624;BME280;34422;45.802;16.114;2022-08-19T05:34:23;99545.09;;;22.43;100.00
48624;BME280;34422;45.802;16.114;2022-08-19T05:36:55;99546.56;;;22.27;100.00
48624;BME280;34422;45.802;16.114;2022-08-19T05:39:26;99555.31;;;22.29;100.00
48624;BME280;34422;45.802;16.114;2022-08-19T05:41:57;99586.66;;;22.33;100.00
48624;BME280;34422;45.802;16.114;2022-08-19T05:44:27;99597.47;;;22.43;100.00
48624;BME280;34422;45.802;16.114;2022-08-19T05:46:54;99605.34;;;22.50;100.00
48624;BME280;34422;45.802;16.114;2022-08-19T05:49:22;99613.09;;;22.61;100.00
48624;BME280;34422;45.802;16.114;2022-08-19T05:51:49;99625.47;;;22.64;100.00
48624;BME280;34422;45.802;16.114;2022-08-19T05:54:16;99625.16;;;22.65;100.00
48624;BME280;34422;45.802;16.114;2022-08-19T05:56:43;99646.78;;;22.72;100.00
48624;BME280;34422;45.802;16.114;2022-08-19T05:59:10;99646.56;;;23.10;100.00
48624;BME280;34422;45.802;16.114;2022-08-19T06:01:39;99630.00;;;23.46;100.00
48624;BME280;34422;45.802;16.114;2022-08-19T06:04:06;99606.13;;;23.63;100.00
48624;BME280;34422;45.802;16.114;2022-08-19T06:06:35;99588.88;;;23.89;97.01
48624;BME280;34422;45.802;16.114;2022-08-19T06:09:04;99595.66;;;23.83;95.73
48624;BME280;34422;45.802;16.114;2022-08-19T06:11:34;99597.41;;;23.79;96.11
48624;BME280;34422;45.802;16.114;2022-08-19T06:14:05;99609.19;;;23.93;93.59
48624;BME280;34422;45.802;16.114;2022-08-19T06:16:35;99617.63;;;23.88;95.27
48624;BME280;34422;45.802;16.114;2022-08-19T06:19:07;99623.66;;;23.67;96.34
48624;BME280;34422;45.802;16.114;2022-08-19T06:21:36;99620.66;;;23.55;96.10
48624;BME280;34422;45.802;16.114;2022-08-19T06:24:05;99637.03;;;23.52;96.27
48624;BME280;34422;45.802;16.114;2022-08-19T06:26:34;99655.16;;;23.44;95.43
48624;BME280;34422;45.802;16.114;2022-08-19T06:29:03;99637.25;;;23.42;94.72
48624;BME280;34422;45.802;16.114;2022-08-19T06:31:30;99640.31;;;23.40;95.87
48624;BME280;34422;45.802;16.114;2022-08-19T06:34:04;99632.03;;;23.40;94.80
48624;BME280;34422;45.802;16.114;2022-08-19T06:36:38;99663.13;;;23.46;96.39
48624;BME280;34422;45.802;16.114;2022-08-19T06:39:31;99669.16;;;23.48;95.91
48624;BME280;34422;45.802;16.114;2022-08-19T06:41:56;99682.03;;;23.52;96.35
48624;BME280;34422;45.802;16.114;2022-08-19T06:44:25;99689.34;;;23.70;93.00
48624;BME280;34422;45.802;16.114;2022-08-19T06:46:53;99705.59;;;23.94;92.82
48624;BME280;34422;45.802;16.114;2022-08-19T06:49:23;99717.59;;;24.12;90.79
48624;BME280;34422;45.802;16.114;2022-08-19T06:51:50;99729.41;;;24.26;90.67
48624;BME280;34422;45.802;16.114;2022-08-19T06:54:18;99731.91;;;24.36;91.22
48624;BME280;34422;45.802;16.114;2022-08-19T06:56:45;99725.31;;;24.46;88.86
48624;BME280;34422;45.802;16.114;2022-08-19T06:59:18;99721.25;;;24.52;89.72
48624;BME280;34422;45.802;16.114;2022-08-19T07:01:48;99711.75;;;24.75;87.43
48624;BME280;34422;45.802;16.114;2022-08-19T07:04:20;99715.44;;;24.93;85.32
48624;BME280;34422;45.802;16.114;2022-08-19T07:06:47;99732.03;;;24.93;85.37
48624;BME280;34422;45.802;16.114;2022-08-19T07:09:17;99721.31;;;25.00;84.54
48624;BME280;34422;45.802;16.114;2022-08-19T07:11:46;99697.63;;;24.86;85.68
48624;BME280;34422;45.802;16.114;2022-08-19T07:14:19;99679.97;;;24.64;88.22
48624;BME280;34422;45.802;16.114;2022-08-19T07:16:52;99664.22;;;24.34;92.03
48624;BME280;34422;45.802;16.114;2022-08-19T07:19:22;99703.66;;;24.17;93.69
48624;BME280;34422;45.802;16.114;2022-08-19T07:21:50;99716.25;;;24.09;96.72
48624;BME280;34422;45.802;16.114;2022-08-19T07:24:21;99677.16;;;23.94;98.81
48624;BME280;34422;45.802;16.114;2022-08-19T07:26:51;99680.22;;;23.70;100.00
48624;BME280;34422;45.802;16.114;2022-08-19T07:29:20;99659.31;;;23.55;100.00
48624;BME280;34422;45.802;16.114;2022-08-19T07:31:50;99635.28;;;23.56;100.00
48624;BME280;34422;45.802;16.114;2022-08-19T07:34:17;99632.72;;;23.59;100.00
48624;BME280;34422;45.802;16.114;2022-08-19T07:36:45;99645.25;;;23.65;100.00
48624;BME280;34422;45.802;16.114;2022-08-19T07:39:23;99658.69;;;23.81;100.00
48624;BME280;34422;45.802;16.114;2022-08-19T07:41:50;99657.94;;;23.89;100.00
48624;BME280;34422;45.802;16.114;2022-08-19T07:44:19;99676.13;;;24.12;100.00
48624;BME280;34422;45.802;16.114;2022-08-19T07:46:49;99691.84;;;24.25;100.00
48624;BME280;34422;45.802;16.114;2022-08-19T07:49:24;99686.72;;;24.41;99.12
48624;BME280;34422;45.802;16.114;2022-08-19T07:52:00;99684.97;;;24.54;98.66
48624;BME280;34422;45.802;16.114;2022-08-19T07:54:30;99693.63;;;24.61;98.91
48624;BME280;34422;45.802;16.114;2022-08-19T07:57:00;99697.22;;;24.61;96.77
48624;BME280;34422;45.802;16.114;2022-08-19T07:59:27;99679.91;;;24.47;96.16
48624;BME280;34422;45.802;16.114;2022-08-19T08:01:57;99652.09;;;24.43;96.09
48624;BME280;34422;45.802;16.114;2022-08-19T08:04:27;99654.34;;;24.41;94.93
48624;BME280;34422;45.802;16.114;2022-08-19T08:07:13;99673.56;;;24.47;93.90
48624;BME280;34422;45.802;16.114;2022-08-19T08:09:59;99682.00;;;24.41;93.41
48624;BME280;34422;45.802;16.114;2022-08-19T08:12:30;99692.56;;;24.39;93.47
48624;BME280;34422;45.802;16.114;2022-08-19T08:15:02;99701.47;;;24.28;92.97
48624;BME280;34422;45.802;16.114;2022-08-19T08:17:31;99708.66;;;24.37;92.33
48624;BME280;34422;45.802;16.114;2022-08-19T08:19:59;99710.00;;;24.49;92.60
48624;BME280;34422;45.802;16.114;2022-08-19T08:22:26;99727.75;;;24.87;90.81
48624;BME280;34422;45.802;16.114;2022-08-19T08:25:18;99750.72;;;25.36;88.07
48624;BME280;34422;45.802;16.114;2022-08-19T08:27:47;99754.38;;;25.79;85.07
48624;BME280;34422;45.802;16.114;2022-08-19T08:30:16;99737.41;;;25.90;83.05
48624;BME280;34422;45.802;16.114;2022-08-19T08:32:44;99728.59;;;26.05;82.91
48624;BME280;34422;45.802;16.114;2022-08-19T08:35:14;99731.19;;;26.10;80.66
48624;BME280;34422;45.802;16.114;2022-08-19T08:37:41;99743.56;;;26.21;79.91
48624;BME280;34422;45.802;16.114;2022-08-19T08:42:49;99743.28;;;25.97;78.24
48624;BME280;34422;45.802;16.114;2022-08-19T08:45:18;99764.78;;;25.65;80.45
48624;BME280;34422;45.802;16.114;2022-08-19T08:47:51;99774.03;;;25.61;80.43
48624;BME280;34422;45.802;16.114;2022-08-19T08:50:25;99778.81;;;25.69;78.34
48624;BME280;34422;45.802;16.114;2022-08-19T08:52:56;99788.75;;;25.70;77.70
48624;BME280;34422;45.802;16.114;2022-08-19T08:55:27;99802.44;;;25.66;80.72
48624;BME280;34422;45.802;16.114;2022-08-19T08:58:01;99770.03;;;25.93;78.91
48624;BME280;34422;45.802;16.114;2022-08-19T09:00:36;99745.72;;;25.90;77.22
48624;BME280;34422;45.802;16.114;2022-08-19T09:03:21;99763.84;;;25.96;76.64
48624;BME280;34422;45.802;16.114;2022-08-19T09:08:33;99808.34;;;26.16;75.65
48624;BME280;34422;45.802;16.114;2022-08-19T09:11:07;99786.50;;;26.06;75.99
48624;BME280;34422;45.802;16.114;2022-08-19T09:16:10;99812.56;;;26.40;75.31
48624;BME280;34422;45.802;16.114;2022-08-19T09:18:49;99815.66;;;26.55;75.57
48624;BME280;34422;45.802;16.114;2022-08-19T09:21:20;99812.50;;;26.66;75.62
48624;BME280;34422;45.802;16.114;2022-08-19T09:23:49;99798.59;;;26.83;80.32
48624;BME280;34422;45.802;16.114;2022-08-19T09:26:19;99781.03;;;26.53;77.82
48624;BME280;34422;45.802;16.114;2022-08-19T09:28:51;99788.50;;;26.78;74.84
48624;BME280;34422;45.802;16.114;2022-08-19T09:31:23;99799.06;;;26.85;75.63
48624;BME280;34422;45.802;16.114;2022-08-19T09:33:52;99787.66;;;27.24;75.67
48624;BME280;34422;45.802;16.114;2022-08-19T09:36:20;99794.09;;;27.08;76.38
48624;BME280;34422;45.802;16.114;2022-08-19T09:38:48;99777.72;;;26.77;77.96
48624;BME280;34422;45.802;16.114;2022-08-19T09:41:23;99776.47;;;26.57;76.33
48624;BME280;34422;45.802;16.114;2022-08-19T09:43:52;99772.50;;;26.75;77.75
48624;BME280;34422;45.802;16.114;2022-08-19T09:46:24;99790.09;;;26.88;75.81
48624;BME280;34422;45.802;16.114;2022-08-19T09:48:53;99783.31;;;26.60;76.60
48624;BME280;34422;45.802;16.114;2022-08-19T09:51:23;99795.63;;;26.33;78.90
48624;BME280;34422;45.802;16.114;2022-08-19T09:53:51;99803.28;;;26.10;80.50
48624;BME280;34422;45.802;16.114;2022-08-19T09:56:22;99820.56;;;25.90;81.89
48624;BME280;34422;45.802;16.114;2022-08-19T09:58:49;99818.25;;;25.74;83.35
48624;BME280;34422;45.802;16.114;2022-08-19T10:01:25;99805.66;;;25.51;83.97
48624;BME280;34422;45.802;16.114;2022-08-19T10:03:54;99787.53;;;25.28;86.67
48624;BME280;34422;45.802;16.114;2022-08-19T10:06:23;99813.19;;;25.11;90.14
48624;BME280;34422;45.802;16.114;2022-08-19T10:08:52;99760.91;;;25.01;94.79
48624;BME280;34422;45.802;16.114;2022-08-19T10:11:19;99716.72;;;24.56;98.88
48624;BME280;34422;45.802;16.114;2022-08-19T10:13:47;99650.97;;;24.22;100.00
48624;BME280;34422;45.802;16.114;2022-08-19T10:16:17;99631.19;;;23.98;100.00
48624;BME280;34422;45.802;16.114;2022-08-19T10:18:46;99629.94;;;23.82;100.00
48624;BME280;34422;45.802;16.114;2022-08-19T10:21:20;99600.59;;;23.63;100.00
48624;BME280;34422;45.802;16.114;2022-08-19T10:23:49;99569.50;;;23.58;100.00
48624;BME280;34422;45.802;16.114;2022-08-19T10:26:20;99591.03;;;23.47;100.00
48624;BME280;34422;45.802;16.114;2022-08-19T10:28:48;99624.56;;;23.54;100.00
48624;BME280;34422;45.802;16.114;2022-08-19T10:31:17;99636.97;;;23.65;100.00
48624;BME280;34422;45.802;16.114;2022-08-19T10:33:47;99631.06;;;23.81;100.00
48624;BME280;34422;45.802;16.114;2022-08-19T10:36:21;99638.47;;;23.94;100.00
48624;BME280;34422;45.802;16.114;2022-08-19T10:38:50;99637.56;;;24.07;100.00
48624;BME280;34422;45.802;16.114;2022-08-19T10:41:21;99636.66;;;24.20;100.00
48624;BME280;34422;45.802;16.114;2022-08-19T10:43:58;99641.03;;;24.43;100.00
48624;BME280;34422;45.802;16.114;2022-08-19T10:46:27;99659.84;;;24.81;100.00
48624;BME280;34422;45.802;16.114;2022-08-19T10:48:54;99659.28;;;25.19;100.00
48624;BME280;34422;45.802;16.114;2022-08-19T10:51:21;99663.72;;;25.54;99.16
48624;BME280;34422;45.802;16.114;2022-08-19T10:54:17;99669.09;;;25.85;96.39
48624;BME280;34422;45.802;16.114;2022-08-19T10:56:44;99684.25;;;25.96;93.23
48624;BME280;34422;45.802;16.114;2022-08-19T11:01:49;99686.75;;;26.44;87.87
48624;BME280;34422;45.802;16.114;2022-08-19T11:04:17;99685.00;;;26.69;88.17
48624;BME280;34422;45.802;16.114;2022-08-19T11:06:47;99691.34;;;26.78;86.66
48624;BME280;34422;45.802;16.114;2022-08-19T11:09:21;99695.91;;;27.12;85.97
48624;BME280;34422;45.802;16.114;2022-08-19T11:11:48;99696.22;;;27.19;79.99
48624;BME280;34422;45.802;16.114;2022-08-19T11:14:17;99687.66;;;27.24;80.00
48624;BME280;34422;45.802;16.114;2022-08-19T11:16:48;99678.19;;;27.46;77.74
48624;BME280;34422;45.802;16.114;2022-08-19T11:19:16;99682.94;;;27.87;75.75
48624;BME280;34422;45.802;16.114;2022-08-19T11:21:47;99679.63;;;28.06;73.19
48624;BME280;34422;45.802;16.114;2022-08-19T11:24:17;99678.47;;;28.40;72.79
48624;BME280;34422;45.802;16.114;2022-08-19T11:26:44;99667.56;;;28.72;69.03
48624;BME280;34422;45.802;16.114;2022-08-19T11:29:12;99666.88;;;28.50;67.03
48624;BME280;34422;45.802;16.114;2022-08-19T11:31:41;99671.75;;;28.65;67.50
48624;BME280;34422;45.802;16.114;2022-08-19T11:34:11;99665.94;;;28.46;61.40
48624;BME280;34422;45.802;16.114;2022-08-19T11:36:42;99664.91;;;28.63;60.90
48624;BME280;34422;45.802;16.114;2022-08-19T11:39:13;99658.75;;;28.57;61.83
48624;BME280;34422;45.802;16.114;2022-08-19T11:41:40;99655.97;;;28.57;61.19
48624;BME280;34422;45.802;16.114;2022-08-19T11:44:07;99661.66;;;28.73;61.91
48624;BME280;34422;45.802;16.114;2022-08-19T11:46:36;99655.75;;;28.87;60.23
48624;BME280;34422;45.802;16.114;2022-08-19T11:49:04;99657.03;;;28.89;60.31
48624;BME280;34422;45.802;16.114;2022-08-19T11:51:31;99650.66;;;28.64;61.38
48624;BME280;34422;45.802;16.114;2022-08-19T11:54:00;99636.38;;;28.54;60.97
48624;BME280;34422;45.802;16.114;2022-08-19T11:56:27;99631.16;;;28.40;59.63
48624;BME280;34422;45.802;16.114;2022-08-19T11:58:55;99633.13;;;28.64;58.60
48624;BME280;34422;45.802;16.114;2022-08-19T12:01:24;99625.47;;;28.73;58.53
48624;BME280;34422;45.802;16.114;2022-08-19T12:03:53;99634.91;;;28.81;58.83
48624;BME280;34422;45.802;16.114;2022-08-19T12:06:27;99626.28;;;28.61;57.54
48624;BME280;34422;45.802;16.114;2022-08-19T12:09:00;99626.06;;;28.67;57.27
48624;BME280;34422;45.802;16.114;2022-08-19T12:11:27;99621.66;;;28.90;56.47
48624;BME280;34422;45.802;16.114;2022-08-19T12:13:54;99613.97;;;28.99;56.04
48624;BME280;34422;45.802;16.114;2022-08-19T12:16:24;99613.97;;;28.99;55.07
48624;BME280;34422;45.802;16.114;2022-08-19T12:18:54;99613.50;;;29.09;54.62
48624;BME280;34422;45.802;16.114;2022-08-19T12:21:26;99617.00;;;28.94;55.46
48624;BME280;34422;45.802;16.114;2022-08-19T12:23:56;99613.28;;;29.02;55.06
48624;BME280;34422;45.802;16.114;2022-08-19T12:26:25;99620.81;;;29.02;53.74
48624;BME280;34422;45.802;16.114;2022-08-19T12:28:53;99620.38;;;28.87;53.97
48624;BME280;34422;45.802;16.114;2022-08-19T12:31:20;99608.06;;;29.00;55.53
48624;BME280;34422;45.802;16.114;2022-08-19T12:33:47;99604.44;;;29.00;56.20
48624;BME280;34422;45.802;16.114;2022-08-19T12:36:15;99603.31;;;28.77;56.08
48624;BME280;34422;45.802;16.114;2022-08-19T12:38:42;99596.25;;;28.67;56.94
48624;BME280;34422;45.802;16.114;2022-08-19T12:41:13;99590.09;;;28.86;56.51
48624;BME280;34422;45.802;16.114;2022-08-19T12:43:40;99579.16;;;29.05;56.26
48624;BME280;34422;45.802;16.114;2022-08-19T12:46:09;99570.22;;;29.40;54.79
48624;BME280;34422;45.802;16.114;2022-08-19T12:48:36;99560.91;;;29.48;54.15
48624;BME280;34422;45.802;16.114;2022-08-19T12:51:09;99559.28;;;29.47;53.39
48624;BME280;34422;45.802;16.114;2022-08-19T12:53:36;99550.59;;;29.80;52.78
48624;BME280;34422;45.802;16.114;2022-08-19T12:56:04;99558.31;;;29.98;51.02
48624;BME280;34422;45.802;16.114;2022-08-19T12:58:31;99557.41;;;30.26;48.11
48624;BME280;34422;45.802;16.114;2022-08-19T13:00:58;99569.63;;;30.37;47.50
48624;BME280;34422;45.802;16.114;2022-08-19T13:03:25;99573.94;;;30.50;46.90
48624;BME280;34422;45.802;16.114;2022-08-19T13:05:55;99574.88;;;30.54;45.57
48624;BME280;34422;45.802;16.114;2022-08-19T13:08:22;99577.75;;;30.73;45.62
48624;BME280;34422;45.802;16.114;2022-08-19T13:10:49;99573.94;;;30.82;47.16